Terminal Aerodrome Forecast
Issued by NWS Knoxville/Tri Cities, TN

Home | Current Version | Previous Version | Text Only | Print | Product List | Glossary On
Versions: 1 2 3 4 5 6 7 8 9 10 11 12 13 14 15 16 17 18 19 20 21 22 23 24 25 26 27 28 29 30 31 32 33 34 35 36 37
000
FTUS44 KMRX 031728
TAFCHA
TAF
KCHA 031728Z 0318/0418 18005KT 3SM BR SCT005 OVC012
      TEMPO 0318/0321 2SM -DZ BR BKN005 OVC012
     FM032100 18005KT 2SM BR VCSH OVC007
     FM040100 19005KT 2SM -SHRA BR OVC007 WS020/21040KT
     FM040800 21005KT 3SM -SHRA BR OVC010 WS020/22040KT
     FM041200 20004KT 4SM BR VCSH OVC007
     FM041500 20006KT 4SM BR OVC015=

USA.gov is the U.S. government's official web portal to all federal, state and local government web resources and services.